Terminal Aerodrome Forecast
Issued by NWS Charleston, SC

Home | Current Version | Previous Version | Text Only | Print | Product List | Glossary On
Versions: 1 2 3 4 5 6 7 8 9 10 11 12 13 14 15 16 17
000
FTUS42 KCHS 302340
TAFSAV
TAF
KSAV 302340Z 3100/3124 18007KT P6SM SCT090
     FM310200 VRB03KT P6SM FEW090 SCT250
     FM310800 VRB02KT P6SM SCT015
     FM311400 25005KT P6SM SCT040 BKN080
     FM311800 17008KT P6SM VCSH BKN040=

USA.gov is the U.S. government's official web portal to all federal, state and local government web resources and services.